createdAt,value
2018-04-19T00:00:23.146Z,0
2018-04-19T00:01:03.676Z,0
2018-04-19T00:01:44.330Z,0
2018-04-19T00:02:24.755Z,0
2018-04-19T00:03:05.250Z,0
2018-04-19T00:03:45.734Z,0
2018-04-19T00:04:26.211Z,0
2018-04-19T00:05:06.698Z,0
2018-04-19T00:05:47.204Z,0
2018-04-19T00:06:27.701Z,0
2018-04-19T00:07:08.194Z,0
2018-04-19T00:07:48.681Z,0
2018-04-19T00:08:29.177Z,0
2018-04-19T00:09:09.617Z,0
2018-04-19T00:09:50.113Z,0
2018-04-19T00:10:30.601Z,0
2018-04-19T00:11:11.100Z,0
2018-04-19T00:11:51.621Z,0
2018-04-19T00:12:32.029Z,0
2018-04-19T00:13:12.526Z,0
2018-04-19T00:13:53.049Z,0
2018-04-19T00:14:33.558Z,0
2018-04-19T00:15:13.999Z,0
2018-04-19T00:15:54.513Z,0
2018-04-19T00:16:35.013Z,0
2018-04-19T00:17:15.561Z,0
2018-04-19T00:17:56.023Z,0
2018-04-19T00:18:36.560Z,0
2018-04-19T00:19:17.031Z,0
2018-04-19T00:19:57.580Z,0
2018-04-19T00:20:38.069Z,0
2018-04-19T00:21:18.535Z,0
2018-04-19T00:21:59.077Z,0
2018-04-19T00:22:39.556Z,0
2018-04-19T00:23:20.006Z,0
2018-04-19T00:24:00.469Z,0
2018-04-19T00:24:41.000Z,0
2018-04-19T00:25:21.442Z,0
2018-04-19T00:26:01.985Z,0
2018-04-19T00:26:42.451Z,0
2018-04-19T00:27:22.909Z,0
2018-04-19T00:28:03.468Z,0
2018-04-19T00:28:43.933Z,0
2018-04-19T00:29:24.432Z,0
2018-04-19T00:30:04.879Z,0
2018-04-19T00:30:45.434Z,0
2018-04-19T00:31:25.884Z,0
2018-04-19T00:32:06.386Z,0
2018-04-19T00:32:46.886Z,0
2018-04-19T00:33:27.398Z,0
2018-04-19T00:34:07.876Z,0
2018-04-19T00:34:48.354Z,0
2018-04-19T00:35:28.807Z,0
2018-04-19T00:36:09.324Z,0
2018-04-19T00:36:49.860Z,0
2018-04-19T00:37:30.348Z,0
2018-04-19T00:38:10.813Z,0
2018-04-19T00:38:51.333Z,0
2018-04-19T00:39:31.835Z,0
2018-04-19T00:40:12.339Z,0
2018-04-19T00:40:52.886Z,0
2018-04-19T00:41:33.303Z,0
2018-04-19T00:42:13.793Z,0
2018-04-19T00:42:54.269Z,0
2018-04-19T00:43:34.812Z,0
2018-04-19T00:44:15.334Z,0
2018-04-19T00:44:55.780Z,0
2018-04-19T00:45:36.292Z,0
2018-04-19T00:46:16.814Z,0
2018-04-19T00:46:57.269Z,0
2018-04-19T00:47:37.770Z,0
2018-04-19T00:48:18.366Z,0
2018-04-19T00:48:59.729Z,0
2018-04-19T00:49:40.249Z,0
2018-04-19T00:50:20.705Z,0
2018-04-19T00:51:01.209Z,0
2018-04-19T00:51:41.696Z,0
2018-04-19T00:52:22.401Z,0
2018-04-19T00:53:02.962Z,0
2018-04-19T00:53:43.450Z,0
2018-04-19T00:54:24.004Z,0
2018-04-19T00:55:04.388Z,0
2018-04-19T00:55:44.929Z,0
2018-04-19T00:56:25.368Z,0
2018-04-19T00:57:05.865Z,0
2018-04-19T00:57:46.364Z,0
2018-04-19T00:58:26.841Z,0
2018-04-19T00:59:07.357Z,0
2018-04-19T00:59:47.814Z,0
2018-04-19T01:00:28.286Z,0
2018-04-19T01:01:08.781Z,0
2018-04-19T01:01:49.265Z,0
2018-04-19T01:02:29.713Z,0
2018-04-19T01:03:10.643Z,0
2018-04-19T01:03:51.074Z,0
2018-04-19T01:04:31.519Z,0
2018-04-19T01:05:12.025Z,0
2018-04-19T01:05:52.513Z,0
2018-04-19T01:06:33.035Z,0
2018-04-19T01:07:13.534Z,0
2018-04-19T01:07:54.005Z,0
2018-04-19T01:08:34.487Z,0
2018-04-19T01:09:14.988Z,0
2018-04-19T01:09:55.484Z,0
2018-04-19T01:10:36.004Z,0
2018-04-19T01:11:16.508Z,0
2018-04-19T01:11:56.985Z,0
2018-04-19T01:12:37.453Z,0
2018-04-19T01:13:17.942Z,0
2018-04-19T01:13:58.453Z,0
2018-04-19T01:14:38.940Z,0
2018-04-19T01:15:19.423Z,0
2018-04-19T01:15:59.974Z,0
2018-04-19T01:16:40.404Z,0
2018-04-19T01:17:20.905Z,0
2018-04-19T01:18:01.374Z,0
2018-04-19T01:18:41.831Z,0
2018-04-19T01:19:22.351Z,0
2018-04-19T01:20:02.848Z,0
2018-04-19T01:20:43.341Z,0
2018-04-19T01:21:23.834Z,0
2018-04-19T01:22:04.334Z,0
2018-04-19T01:22:44.834Z,0
2018-04-19T01:23:25.310Z,0
2018-04-19T01:24:05.801Z,0
2018-04-19T01:24:46.428Z,0
2018-04-19T01:25:26.883Z,0
2018-04-19T01:26:07.364Z,0
2018-04-19T01:26:47.811Z,0
2018-04-19T01:27:28.333Z,0
2018-04-19T01:28:08.813Z,0
2018-04-19T01:28:49.326Z,0
2018-04-19T01:29:29.842Z,0
2018-04-19T01:30:10.359Z,0
2018-04-19T01:30:50.836Z,0
2018-04-19T01:31:31.340Z,0
2018-04-19T01:32:11.837Z,0
2018-04-19T01:32:52.288Z,0
2018-04-19T01:33:32.778Z,0
2018-04-19T01:34:13.291Z,0
2018-04-19T01:34:53.783Z,0
2018-04-19T01:35:34.269Z,0
2018-04-19T01:36:14.720Z,0
2018-04-19T01:36:55.215Z,0
2018-04-19T01:37:35.704Z,0
2018-04-19T01:38:16.173Z,0
2018-04-19T01:38:56.689Z,0
2018-04-19T01:39:37.161Z,0
2018-04-19T01:40:17.643Z,0
2018-04-19T01:40:58.126Z,0
2018-04-19T01:41:38.617Z,0
2018-04-19T01:42:19.119Z,0
2018-04-19T01:42:59.599Z,0
2018-04-19T01:43:40.109Z,0
2018-04-19T01:44:20.631Z,0
2018-04-19T01:45:01.051Z,0
2018-04-19T01:45:41.575Z,0
2018-04-19T01:46:22.058Z,0
2018-04-19T01:47:04.509Z,0
2018-04-19T01:47:44.987Z,0
2018-04-19T01:48:25.456Z,0
2018-04-19T01:49:05.969Z,0
2018-04-19T01:49:46.513Z,0
2018-04-19T01:50:27.001Z,0
2018-04-19T01:51:07.449Z,0
2018-04-19T01:51:48.014Z,0
2018-04-19T01:52:28.448Z,0
2018-04-19T01:53:09.000Z,0
2018-04-19T01:53:49.475Z,0
2018-04-19T01:54:30.028Z,0
2018-04-19T01:55:10.515Z,0
2018-04-19T01:55:51.017Z,0
2018-04-19T01:56:31.575Z,0
2018-04-19T01:57:12.283Z,0
2018-04-19T01:59:47.130Z,0
2018-04-19T02:00:27.635Z,0
2018-04-19T02:01:08.226Z,0
2018-04-19T02:01:48.684Z,0
2018-04-19T02:02:29.215Z,0
2018-04-19T02:03:09.696Z,0
2018-04-19T02:03:50.193Z,0
2018-04-19T02:04:30.689Z,0
2018-04-19T02:05:11.188Z,0
2018-04-19T02:05:51.732Z,0
2018-04-19T02:06:32.287Z,0
2018-04-19T02:07:12.812Z,0
2018-04-19T02:07:53.275Z,0
2018-04-19T02:08:33.768Z,0
2018-04-19T02:09:14.263Z,0
2018-04-19T02:09:54.786Z,0
2018-04-19T02:10:35.310Z,0
2018-04-19T02:11:15.766Z,0
2018-04-19T02:11:56.315Z,0
2018-04-19T02:12:36.795Z,0
2018-04-19T02:13:17.340Z,0
2018-04-19T02:13:57.979Z,0
2018-04-19T02:14:38.430Z,0
2018-04-19T02:15:18.982Z,0
2018-04-19T02:15:59.429Z,0
2018-04-19T02:16:39.892Z,0
2018-04-19T02:17:20.428Z,0
2018-04-19T02:18:00.893Z,0
2018-04-19T02:18:41.421Z,0
2018-04-19T02:19:21.902Z,0
2018-04-19T02:20:02.531Z,0
2018-04-19T02:20:43.014Z,0
2018-04-19T02:21:23.488Z,0
2018-04-19T02:22:03.962Z,0
2018-04-19T02:22:44.474Z,0
2018-04-19T02:23:24.905Z,0
2018-04-19T02:24:05.390Z,0
2018-04-19T02:24:45.898Z,0
2018-04-19T02:25:26.462Z,0
2018-04-19T02:26:07.005Z,0
2018-04-19T02:26:47.495Z,0
2018-04-19T02:27:27.988Z,0
2018-04-19T02:28:08.448Z,0
2018-04-19T02:28:48.939Z,0
2018-04-19T02:29:29.451Z,0
2018-04-19T02:30:09.943Z,0
2018-04-19T02:30:50.444Z,0
2018-04-19T02:31:30.898Z,0
2018-04-19T02:32:11.349Z,0
2018-04-19T02:32:51.882Z,0
2018-04-19T02:33:32.355Z,0
2018-04-19T02:34:12.849Z,0
2018-04-19T02:34:53.376Z,0
2018-04-19T02:35:33.892Z,0
2018-04-19T02:36:14.347Z,0
2018-04-19T02:36:54.898Z,0
2018-04-19T02:37:35.336Z,0
2018-04-19T02:38:15.851Z,0
2018-04-19T02:38:56.294Z,0
2018-04-19T02:39:36.837Z,0
2018-04-19T02:40:17.355Z,0
2018-04-19T02:40:57.882Z,0
2018-04-19T02:41:38.343Z,0
2018-04-19T02:42:18.832Z,0
2018-04-19T02:42:59.311Z,0
2018-04-19T02:43:39.838Z,0
2018-04-19T02:44:20.304Z,0
2018-04-19T02:45:00.831Z,0
2018-04-19T02:45:41.310Z,0
2018-04-19T02:46:21.833Z,0
2018-04-19T02:47:02.276Z,0
2018-04-19T02:47:42.782Z,0
2018-04-19T02:48:23.268Z,0
2018-04-19T02:49:03.761Z,0
2018-04-19T02:49:44.251Z,0
2018-04-19T02:50:24.796Z,0
2018-04-19T02:51:05.284Z,0
2018-04-19T02:51:45.770Z,0
2018-04-19T02:52:26.260Z,0
2018-04-19T02:53:06.754Z,0
2018-04-19T02:53:47.396Z,0
2018-04-19T02:54:27.836Z,0
2018-04-19T02:55:08.295Z,0
2018-04-19T02:55:48.783Z,0
2018-04-19T02:56:29.276Z,0
2018-04-19T02:57:09.761Z,0
2018-04-19T02:57:50.283Z,0
2018-04-19T02:58:30.758Z,0
2018-04-19T02:59:11.308Z,0
2018-04-19T02:59:51.786Z,0
2018-04-19T03:00:32.274Z,0
2018-04-19T03:01:12.767Z,0
2018-04-19T03:01:53.279Z,0
2018-04-19T03:02:33.730Z,0
2018-04-19T03:03:14.235Z,0
2018-04-19T03:03:54.744Z,0
2018-04-19T03:04:35.260Z,0
2018-04-19T03:05:15.737Z,0
2018-04-19T03:05:56.211Z,0
2018-04-19T03:06:36.711Z,0
2018-04-19T03:07:17.224Z,0
2018-04-19T03:07:57.663Z,0
2018-04-19T03:08:38.224Z,0
2018-04-19T03:09:18.710Z,0
2018-04-19T03:09:59.183Z,0
2018-04-19T03:10:39.684Z,0
2018-04-19T03:11:20.120Z,0
2018-04-19T03:12:00.639Z,0
2018-04-19T03:12:41.170Z,0
2018-04-19T03:13:21.568Z,0
2018-04-19T03:14:02.069Z,0
2018-04-19T03:14:42.554Z,0
2018-04-19T03:15:23.079Z,0
2018-04-19T03:16:03.518Z,0
2018-04-19T03:16:43.975Z,0
2018-04-19T03:17:24.493Z,0
2018-04-19T03:18:04.998Z,0
2018-04-19T03:18:45.450Z,0
2018-04-19T03:19:25.965Z,0
2018-04-19T03:20:06.458Z,0
2018-04-19T03:20:46.911Z,0
2018-04-19T03:21:27.366Z,0
2018-04-19T03:22:07.892Z,0
2018-04-19T03:22:48.334Z,0
2018-04-19T03:23:28.868Z,0
2018-04-19T03:24:09.325Z,0
2018-04-19T03:24:49.848Z,0
2018-04-19T03:25:30.307Z,0
2018-04-19T03:26:10.857Z,0
2018-04-19T03:26:51.274Z,0
2018-04-19T03:27:31.805Z,0
2018-04-19T03:28:12.443Z,0
2018-04-19T03:28:52.941Z,0
2018-04-19T03:29:33.403Z,0
2018-04-19T03:30:13.980Z,0
2018-04-19T03:30:54.416Z,0
2018-04-19T03:31:34.929Z,0
2018-04-19T03:32:15.404Z,0
2018-04-19T03:32:55.931Z,0
2018-04-19T03:33:36.350Z,0
2018-04-19T03:34:16.874Z,0
2018-04-19T03:34:57.343Z,0
2018-04-19T03:35:37.818Z,0
2018-04-19T03:36:18.340Z,0
2018-04-19T03:36:58.837Z,0
2018-04-19T03:37:39.341Z,0
2018-04-19T03:38:19.801Z,0
2018-04-19T03:39:00.305Z,0
2018-04-19T03:39:40.767Z,0
2018-04-19T03:40:21.245Z,0
2018-04-19T03:41:01.748Z,0
2018-04-19T03:41:42.269Z,0
2018-04-19T03:42:22.723Z,0
2018-04-19T03:43:03.232Z,0
2018-04-19T03:43:43.682Z,0
2018-04-19T03:44:24.191Z,0
2018-04-19T03:45:04.896Z,0
2018-04-19T03:45:45.364Z,0
2018-04-19T03:46:25.841Z,0
2018-04-19T03:47:06.311Z,0
2018-04-19T03:47:46.789Z,0
2018-04-19T03:48:27.783Z,0
2018-04-19T03:49:08.307Z,0
2018-04-19T03:49:48.741Z,0
2018-04-19T03:50:29.265Z,0
2018-04-19T03:51:09.763Z,0
2018-04-19T03:51:50.229Z,0
2018-04-19T03:52:30.686Z,0
2018-04-19T03:53:11.243Z,0
2018-04-19T03:53:51.769Z,0
2018-04-19T03:54:32.172Z,0
2018-04-19T03:55:12.716Z,0
2018-04-19T03:55:53.160Z,0
2018-04-19T03:56:33.683Z,0
2018-04-19T03:57:14.116Z,0
2018-04-19T03:57:54.679Z,0
2018-04-19T03:58:35.157Z,0
2018-04-19T03:59:15.607Z,0
2018-04-19T03:59:56.109Z,0
2018-04-19T04:00:36.621Z,0
2018-04-19T04:01:17.100Z,0
2018-04-19T04:01:57.714Z,0
2018-04-19T04:02:38.214Z,0
2018-04-19T04:03:18.646Z,0
2018-04-19T04:03:59.167Z,0
2018-04-19T04:04:39.625Z,0
2018-04-19T04:05:20.150Z,0
2018-04-19T04:06:00.621Z,0
2018-04-19T04:06:41.093Z,0
2018-04-19T04:07:21.583Z,0
2018-04-19T04:08:02.040Z,0
2018-04-19T04:08:42.593Z,0
2018-04-19T04:09:23.081Z,0
2018-04-19T04:10:04.317Z,0
2018-04-19T04:10:44.805Z,0
2018-04-19T04:11:25.314Z,0
2018-04-19T04:12:05.803Z,0
2018-04-19T04:12:46.306Z,0
2018-04-19T04:13:26.792Z,0
2018-04-19T04:14:07.633Z,0
2018-04-19T04:14:48.160Z,0
2018-04-19T04:15:28.631Z,0
2018-04-19T04:16:09.128Z,0
2018-04-19T04:16:49.637Z,0
2018-04-19T04:17:30.108Z,0
2018-04-19T04:18:10.679Z,0
2018-04-19T04:18:51.137Z,0
2018-04-19T04:19:31.631Z,0
2018-04-19T04:20:12.113Z,0
2018-04-19T04:20:52.616Z,0
2018-04-19T04:21:33.316Z,0
2018-04-19T04:22:13.831Z,0
2018-04-19T04:22:54.306Z,0
2018-04-19T04:23:34.817Z,0
2018-04-19T04:24:15.345Z,0
2018-04-19T04:24:55.833Z,0
2018-04-19T04:25:36.330Z,0
2018-04-19T04:26:16.835Z,0
2018-04-19T04:26:57.385Z,0
2018-04-19T04:27:37.886Z,0
2018-04-19T04:28:18.344Z,5
2018-04-19T04:28:59.021Z,5
2018-04-19T04:29:39.491Z,5
2018-04-19T04:30:19.950Z,5
2018-04-19T04:31:00.489Z,5
2018-04-19T04:31:40.971Z,5
2018-04-19T04:32:21.455Z,5
2018-04-19T04:33:01.946Z,5
2018-04-19T04:33:42.407Z,5
2018-04-19T04:34:25.470Z,5
2018-04-19T04:35:06.434Z,5
2018-04-19T04:35:46.924Z,5
2018-04-19T04:36:27.460Z,5
2018-04-19T04:37:08.052Z,5
2018-04-19T04:37:48.464Z,10
2018-04-19T04:38:28.936Z,10
2018-04-19T04:39:09.462Z,10
2018-04-19T04:39:49.946Z,10
2018-04-19T04:40:30.413Z,10
2018-04-19T04:41:10.942Z,10
2018-04-19T04:41:51.405Z,10
2018-04-19T04:42:31.984Z,10
2018-04-19T04:43:12.426Z,10
2018-04-19T04:43:53.055Z,10
2018-04-19T04:44:33.556Z,10
2018-04-19T04:45:14.026Z,10
2018-04-19T04:45:54.481Z,15
2018-04-19T04:46:35.027Z,15
2018-04-19T04:47:15.477Z,15
2018-04-19T04:47:56.055Z,15
2018-04-19T04:48:36.547Z,15
2018-04-19T04:49:17.059Z,15
2018-04-19T04:49:57.551Z,15
2018-04-19T04:50:38.062Z,15
2018-04-19T04:51:18.547Z,15
2018-04-19T04:51:59.052Z,15
2018-04-19T04:52:39.590Z,20
2018-04-19T04:53:20.053Z,20
2018-04-19T04:54:00.663Z,20
2018-04-19T04:54:41.089Z,20
2018-04-19T04:55:21.550Z,20
2018-04-19T04:56:02.259Z,20
2018-04-19T04:56:42.813Z,20
2018-04-19T04:57:23.325Z,20
2018-04-19T04:58:03.811Z,20
2018-04-19T04:58:44.315Z,20
2018-04-19T04:59:24.837Z,20
2018-04-19T05:00:05.308Z,25
2018-04-19T05:00:45.814Z,25
2018-04-19T05:01:26.352Z,25
2018-04-19T05:02:06.840Z,25
2018-04-19T05:02:47.353Z,25
2018-04-19T05:03:27.814Z,25
2018-04-19T05:04:08.339Z,25
2018-04-19T05:04:48.850Z,25
2018-04-19T05:05:29.289Z,25
2018-04-19T05:06:09.757Z,25
2018-04-19T05:06:50.300Z,25
2018-04-19T05:07:30.861Z,30
2018-04-19T05:08:11.398Z,30
2018-04-19T05:08:51.839Z,30
2018-04-19T05:09:32.391Z,30
2018-04-19T05:10:12.898Z,30
2018-04-19T05:10:53.436Z,30
2018-04-19T05:11:33.992Z,30
2018-04-19T05:12:14.471Z,30
2018-04-19T05:12:55.009Z,30
2018-04-19T05:13:35.500Z,30
2018-04-19T05:14:15.976Z,30
2018-04-19T05:14:56.446Z,35
2018-04-19T05:15:36.974Z,35
2018-04-19T05:16:17.478Z,35
2018-04-19T05:16:57.947Z,35
2018-04-19T05:17:38.411Z,35
2018-04-19T05:18:18.877Z,35
2018-04-19T05:18:59.406Z,35
2018-04-19T05:19:39.942Z,35
2018-04-19T05:20:20.449Z,35
2018-04-19T05:21:00.909Z,35
2018-04-19T05:21:41.460Z,35
2018-04-19T05:22:21.980Z,35
2018-04-19T05:23:02.800Z,35
2018-04-19T05:23:43.319Z,35
2018-04-19T05:24:23.824Z,40
2018-04-19T05:25:04.298Z,40
2018-04-19T05:25:44.893Z,40
2018-04-19T05:26:25.345Z,40
2018-04-19T05:27:10.832Z,40
2018-04-19T05:31:33.656Z,40
2018-04-19T05:32:14.124Z,40
2018-04-19T05:32:54.688Z,40
2018-04-19T05:33:35.182Z,40
2018-04-19T05:34:15.692Z,40
2018-04-19T05:34:56.561Z,45
2018-04-19T05:35:37.027Z,45
2018-04-19T05:36:17.535Z,45
2018-04-19T05:36:57.998Z,45
2018-04-19T05:37:38.499Z,45
2018-04-19T05:38:18.971Z,45
2018-04-19T05:38:59.501Z,50
2018-04-19T05:39:40.666Z,50
2018-04-19T05:40:20.817Z,50
2018-04-19T05:41:01.247Z,50
2018-04-19T05:41:41.747Z,55
2018-04-19T05:42:22.455Z,55
2018-04-19T05:43:03.114Z,55
2018-04-19T05:43:43.603Z,55
2018-04-19T05:44:24.056Z,55
2018-04-19T05:45:04.658Z,55
2018-04-19T05:45:45.129Z,55
2018-04-19T05:46:25.654Z,55
2018-04-19T05:47:06.218Z,55
2018-04-19T05:47:46.671Z,55
2018-04-19T05:48:27.195Z,55
2018-04-19T05:49:07.647Z,55
2018-04-19T05:49:48.157Z,55
2018-04-19T05:50:28.651Z,55
2018-04-19T05:51:09.103Z,55
2018-04-19T05:51:50.072Z,55
2018-04-19T05:52:30.917Z,55
2018-04-19T05:53:11.387Z,55
2018-04-19T05:53:51.918Z,60
2018-04-19T05:54:32.409Z,55
2018-04-19T05:55:12.913Z,55
2018-04-19T05:55:53.817Z,60
2018-04-19T05:56:34.590Z,60
2018-04-19T05:57:15.107Z,60
2018-04-19T05:57:55.639Z,60
2018-04-19T05:58:36.155Z,60
2018-04-19T05:59:16.631Z,60
2018-04-19T05:59:57.132Z,60
2018-04-19T06:00:37.662Z,60
2018-04-19T06:01:18.132Z,60
2018-04-19T06:01:58.594Z,60
2018-04-19T06:02:39.088Z,60
2018-04-19T06:03:19.802Z,60
2018-04-19T06:04:00.122Z,65
2018-04-19T06:04:40.632Z,60
2018-04-19T06:05:21.103Z,60
2018-04-19T06:06:01.606Z,60
2018-04-19T06:06:42.106Z,60
2018-04-19T06:07:22.605Z,60
2018-04-19T06:08:03.164Z,60
2018-04-19T06:08:43.634Z,60
2018-04-19T06:09:24.225Z,60
2018-04-19T06:10:04.731Z,60
2018-04-19T06:10:45.294Z,60
2018-04-19T06:11:25.738Z,60
2018-04-19T06:12:06.231Z,60
2018-04-19T06:12:46.723Z,60
2018-04-19T06:13:27.207Z,60
2018-04-19T06:14:07.732Z,60
2018-04-19T06:14:48.264Z,60
2018-04-19T06:15:28.747Z,60
2018-04-19T06:16:09.271Z,60
2018-04-19T06:16:49.737Z,65
2018-04-19T06:17:30.268Z,65
2018-04-19T06:18:10.746Z,65
2018-04-19T06:18:51.221Z,65
2018-04-19T06:19:31.679Z,60
2018-04-19T06:20:12.250Z,60
2018-04-19T06:20:52.667Z,60
2018-04-19T06:21:33.219Z,60
2018-04-19T06:22:13.731Z,60
2018-04-19T06:22:54.207Z,60
2018-04-19T06:23:34.741Z,65
2018-04-19T06:24:15.220Z,65
2018-04-19T06:24:55.793Z,65
2018-04-19T06:25:36.436Z,65
2018-04-19T06:26:16.762Z,65
2018-04-19T06:26:57.272Z,60
2018-04-19T06:27:37.820Z,65
2018-04-19T06:28:18.753Z,65
2018-04-19T06:28:59.334Z,65
2018-04-19T06:29:39.833Z,65
2018-04-19T06:30:20.350Z,65
2018-04-19T06:31:00.887Z,65
2018-04-19T06:31:41.528Z,65
2018-04-19T06:32:22.073Z,65
2018-04-19T06:33:02.544Z,65
2018-04-19T06:33:43.186Z,65
2018-04-19T06:34:23.699Z,65
2018-04-19T06:35:04.373Z,65
2018-04-19T06:35:44.906Z,65
2018-04-19T06:36:25.421Z,70
2018-04-19T06:37:05.908Z,70
2018-04-19T06:37:46.365Z,70
2018-04-19T06:38:26.904Z,70
2018-04-19T06:39:07.490Z,70
2018-04-19T06:39:48.083Z,70
2018-04-19T06:40:28.652Z,75
2018-04-19T06:41:09.320Z,80
2018-04-19T06:41:49.925Z,80
2018-04-19T06:42:30.564Z,85
2018-04-19T06:43:11.238Z,90
2018-04-19T06:43:52.102Z,90
2018-04-19T06:44:32.625Z,95
2018-04-19T06:45:13.275Z,95
2018-04-19T06:45:53.818Z,95
2018-04-19T06:46:34.363Z,95
2018-04-19T06:47:14.953Z,95
2018-04-19T06:47:55.437Z,95
2018-04-19T06:48:35.942Z,95
2018-04-19T06:49:16.459Z,95
2018-04-19T06:49:56.927Z,95
2018-04-19T06:50:37.436Z,95
2018-04-19T06:51:18.084Z,95
2018-04-19T06:51:58.580Z,95
2018-04-19T06:52:39.177Z,95
2018-04-19T06:53:20.405Z,95
2018-04-19T06:54:00.873Z,95
2018-04-19T06:54:41.553Z,90
2018-04-19T06:55:22.094Z,90
2018-04-19T06:56:02.563Z,85
2018-04-19T06:56:43.215Z,85
2018-04-19T06:57:23.686Z,80
2018-04-19T06:58:04.309Z,80
2018-04-19T06:58:44.816Z,80
2018-04-19T06:59:25.284Z,85
2018-04-19T07:00:05.764Z,80
2018-04-19T07:00:46.272Z,80
2018-04-19T07:01:26.844Z,80
2018-04-19T07:02:07.443Z,85
2018-04-19T07:02:47.899Z,90
2018-04-19T07:03:28.410Z,90
2018-04-19T07:04:09.003Z,95
2018-04-19T07:04:49.530Z,95
2018-04-19T07:05:30.049Z,100
2018-04-19T07:06:10.574Z,105
2018-04-19T07:06:51.203Z,105
2018-04-19T07:07:31.682Z,110
2018-04-19T07:08:12.240Z,110
2018-04-19T07:08:52.984Z,110
2018-04-19T07:09:33.689Z,110
2018-04-19T07:10:14.153Z,110
2018-04-19T07:10:54.652Z,110
2018-04-19T07:11:35.191Z,110
2018-04-19T07:12:15.721Z,110
2018-04-19T07:12:56.312Z,110
2018-04-19T07:13:36.828Z,110
2018-04-19T07:14:17.259Z,110
2018-04-19T07:14:57.731Z,110
2018-04-19T07:15:38.323Z,110
2018-04-19T07:16:19.125Z,110
2018-04-19T07:16:59.627Z,110
2018-04-19T07:17:40.124Z,110
2018-04-19T07:18:20.626Z,110
2018-04-19T07:19:01.169Z,110
2018-04-19T07:19:41.692Z,110
2018-04-19T07:20:22.171Z,110
2018-04-19T07:21:02.837Z,110
2018-04-19T07:21:43.627Z,110
2018-04-19T07:22:24.425Z,110
2018-04-19T07:23:05.037Z,110
2018-04-19T07:23:45.741Z,110
2018-04-19T07:24:26.257Z,110
2018-04-19T07:25:06.699Z,110
2018-04-19T07:25:47.292Z,110
2018-04-19T07:26:27.749Z,110
2018-04-19T07:27:08.240Z,115
2018-04-19T07:27:48.723Z,110
2018-04-19T07:28:29.201Z,105
2018-04-19T07:29:09.792Z,105
2018-04-19T07:29:50.265Z,105
2018-04-19T07:30:30.799Z,105
2018-04-19T07:31:11.491Z,105
2018-04-19T07:31:51.776Z,105
2018-04-19T07:32:32.308Z,105
2018-04-19T07:33:12.820Z,105
2018-04-19T07:33:53.443Z,105
2018-04-19T07:34:33.952Z,100
2018-04-19T07:35:14.696Z,100
2018-04-19T07:35:55.232Z,100
2018-04-19T07:36:35.999Z,100
2018-04-19T07:37:16.361Z,100
2018-04-19T07:37:56.879Z,100
2018-04-19T07:38:37.338Z,100
2018-04-19T07:39:17.811Z,95
2018-04-19T07:39:58.321Z,95
2018-04-19T07:40:39.238Z,95
2018-04-19T07:41:19.764Z,95
2018-04-19T07:42:00.176Z,95
2018-04-19T07:42:40.769Z,95
2018-04-19T07:43:21.195Z,95
2018-04-19T07:44:01.725Z,95
2018-04-19T07:44:42.187Z,95
2018-04-19T07:45:22.644Z,95
2018-04-19T07:46:03.251Z,95
2018-04-19T07:46:43.662Z,95
2018-04-19T07:47:24.308Z,95
2018-04-19T07:48:04.773Z,95
2018-04-19T07:48:45.245Z,90
2018-04-19T07:49:25.743Z,90
2018-04-19T07:50:06.249Z,90
2018-04-19T07:50:46.742Z,90
2018-04-19T07:51:27.314Z,90
2018-04-19T07:52:07.861Z,90
2018-04-19T07:52:48.317Z,90
2018-04-19T07:53:29.056Z,90
2018-04-19T07:54:10.016Z,85
2018-04-19T07:54:50.492Z,85
2018-04-19T07:55:31.011Z,85
2018-04-19T07:56:11.525Z,85
2018-04-19T07:56:52.023Z,80
2018-04-19T07:57:32.601Z,75
2018-04-19T07:58:13.017Z,75
2018-04-19T07:58:53.512Z,70
2018-04-19T07:59:33.959Z,70
2018-04-19T08:00:14.630Z,70
2018-04-19T08:00:54.982Z,70
2018-04-19T08:01:35.546Z,70
2018-04-19T08:02:15.986Z,70
2018-04-19T08:02:56.577Z,70
2018-04-19T08:03:37.222Z,70
2018-04-19T08:04:17.744Z,70
2018-04-19T08:04:58.251Z,70
2018-04-19T08:05:38.708Z,70
2018-04-19T08:06:19.845Z,70
2018-04-19T08:07:00.326Z,70
2018-04-19T08:07:40.851Z,75
2018-04-19T08:08:21.476Z,70
2018-04-19T08:09:02.019Z,65
2018-04-19T08:09:42.515Z,70
2018-04-19T08:10:22.968Z,65
2018-04-19T08:11:03.441Z,65
2018-04-19T08:11:43.920Z,65
2018-04-19T08:12:24.372Z,65
2018-04-19T08:13:05.307Z,65
2018-04-19T08:13:45.568Z,65
2018-04-19T08:14:26.100Z,65
2018-04-19T08:15:06.634Z,65
2018-04-19T08:15:47.152Z,65
2018-04-19T08:16:27.807Z,65
2018-04-19T08:17:08.291Z,65
2018-04-19T08:17:48.904Z,65
2018-04-19T08:18:29.989Z,65
2018-04-19T08:19:10.467Z,65
2018-04-19T08:19:50.996Z,65
2018-04-19T08:20:31.506Z,65
2018-04-19T08:21:12.013Z,65
2018-04-19T08:21:52.598Z,65
2018-04-19T08:22:33.143Z,65
2018-04-19T08:23:13.764Z,65
2018-04-19T08:23:54.252Z,65
2018-04-19T08:24:35.214Z,65
2018-04-19T08:25:15.645Z,60
2018-04-19T08:25:56.229Z,60
2018-04-19T08:26:36.958Z,60
2018-04-19T08:27:17.243Z,60
2018-04-19T08:27:57.724Z,60
2018-04-19T08:28:38.201Z,65
2018-04-19T08:29:18.706Z,60
2018-04-19T08:29:59.371Z,60
2018-04-19T08:30:39.863Z,60
2018-04-19T08:31:20.407Z,60
2018-04-19T08:32:00.901Z,60
2018-04-19T08:32:41.686Z,60
2018-04-19T08:33:22.216Z,60
2018-04-19T08:34:02.679Z,60
2018-04-19T08:34:43.135Z,60
2018-04-19T08:35:23.735Z,60
2018-04-19T08:36:04.187Z,60
2018-04-19T08:36:44.707Z,60
2018-04-19T08:37:25.241Z,60
2018-04-19T08:38:05.886Z,60
2018-04-19T08:38:46.409Z,60
2018-04-19T08:39:26.922Z,60
2018-04-19T08:40:07.392Z,60
2018-04-19T08:40:47.890Z,60
2018-04-19T08:41:28.430Z,60
2018-04-19T08:42:09.006Z,60
2018-04-19T08:42:49.577Z,60
2018-04-19T08:43:30.042Z,60
2018-04-19T08:44:10.514Z,60
2018-04-19T08:46:51.177Z,60
2018-04-19T08:47:31.690Z,60
2018-04-19T08:48:12.222Z,60
2018-04-19T08:48:52.770Z,60
2018-04-19T08:49:33.221Z,60
2018-04-19T08:50:13.755Z,60
2018-04-19T08:50:54.239Z,60
2018-04-19T08:51:34.685Z,60
2018-04-19T08:52:15.653Z,60
2018-04-19T08:52:55.875Z,60
2018-04-19T08:53:36.346Z,60
2018-04-19T08:54:16.954Z,60
2018-04-19T08:54:57.587Z,60
2018-04-19T08:55:38.214Z,60
2018-04-19T08:56:18.744Z,65
2018-04-19T08:56:59.248Z,65
2018-04-19T08:57:39.751Z,60
2018-04-19T08:58:20.243Z,60
2018-04-19T08:59:00.957Z,60
2018-04-19T08:59:41.548Z,60
2018-04-19T09:00:22.016Z,20
2018-04-19T09:01:02.454Z,80
2018-04-19T09:01:42.944Z,100
2018-04-19T09:02:23.480Z,110
2018-04-19T09:03:03.959Z,120
2018-04-19T09:03:44.454Z,120
2018-04-19T09:04:24.943Z,100
2018-04-19T09:05:05.449Z,105
2018-04-19T09:05:45.919Z,105
2018-04-19T09:06:26.542Z,115
2018-04-19T09:07:07.128Z,120
2018-04-19T09:07:47.766Z,120
2018-04-19T09:08:28.209Z,120
2018-04-19T09:09:08.706Z,120
2018-04-19T09:09:49.229Z,120
2018-04-19T09:10:29.688Z,120
2018-04-19T09:11:10.260Z,120
2018-04-19T09:11:50.739Z,120
2018-04-19T09:12:31.543Z,120
2018-04-19T09:13:12.061Z,120
2018-04-19T09:13:52.621Z,120
2018-04-19T09:14:33.007Z,120
2018-04-19T09:15:13.653Z,120
2018-04-19T09:15:54.046Z,120
2018-04-19T09:16:35.008Z,120
2018-04-19T09:17:15.476Z,120
2018-04-19T09:17:56.084Z,120
2018-04-19T09:18:36.507Z,120
2018-04-19T09:19:17.066Z,120
2018-04-19T09:19:57.550Z,120
2018-04-19T09:20:38.164Z,120
2018-04-19T09:21:19.032Z,120
2018-04-19T09:21:59.621Z,120
2018-04-19T09:22:40.079Z,120
2018-04-19T09:23:20.525Z,120
2018-04-19T09:24:01.025Z,120
2018-04-19T09:24:42.889Z,120
2018-04-19T09:25:23.297Z,120
2018-04-19T09:26:03.850Z,115
2018-04-19T09:26:44.310Z,115
2018-04-19T09:27:24.892Z,115
2018-04-19T09:28:05.442Z,115
2018-04-19T09:28:45.913Z,115
2018-04-19T09:29:26.502Z,115
2018-04-19T09:30:07.077Z,115
2018-04-19T09:30:47.521Z,115
2018-04-19T09:31:27.997Z,115
2018-04-19T09:32:08.610Z,115
2018-04-19T09:32:49.177Z,115
2018-04-19T09:33:29.630Z,110
2018-04-19T09:34:10.109Z,110
2018-04-19T09:34:50.661Z,110
2018-04-19T09:35:31.173Z,110
2018-04-19T09:36:11.660Z,110
2018-04-19T09:36:52.105Z,110
2018-04-19T09:37:32.617Z,110
2018-04-19T09:38:13.116Z,110
2018-04-19T09:38:53.622Z,110
2018-04-19T09:39:34.130Z,110
2018-04-19T09:40:14.624Z,110
2018-04-19T09:40:55.122Z,110
2018-04-19T09:41:35.602Z,110
2018-04-19T09:42:16.137Z,110
2018-04-19T09:42:56.758Z,110
2018-04-19T09:43:37.280Z,110
2018-04-19T09:44:17.823Z,105
2018-04-19T09:44:58.744Z,105
2018-04-19T09:45:39.266Z,105
2018-04-19T09:46:19.819Z,105
2018-04-19T09:47:00.342Z,105
2018-04-19T09:47:40.893Z,105
2018-04-19T09:48:21.387Z,105
2018-04-19T09:49:01.903Z,105
2018-04-19T09:49:42.328Z,105
2018-04-19T09:50:22.930Z,105
2018-04-19T09:51:03.466Z,105
2018-04-19T09:51:43.936Z,105
2018-04-19T09:52:24.469Z,105